Troy, OH (45373)

5:07 PM EDT on September 04, 2015 (GMT -0400)
Rural | | Change Station
CLOSE
Current Station
Personal Weather Station
Location: Troy, OH
Elevation: 854 ft
Nearby Weather Stations

Elev 854 ft 40.01 °N, 84.21 °W | Updated 56 seconds ago

Thunderstorm
Thunderstorm
68.4 °F
Feels Like 68.4 °F
N
0.0
Wind Variable Wind from East
Gusts 4.0 mph

Today
High -- | Low -- °F
--% Chance of Precip.
Yesterday
High -- | Low -- °F
Precip. -- in
7:07 AM 8:03 PM
Waning Gibbous, 56% visible
Pressure 30.04 in
Visibility 8.0 miles
Clouds Mostly Cloudy 5000 ft
Mostly Cloudy 8000 ft
Overcast 12000 ft
Dew Point 65 °F
Humidity 89%
Rainfall 0.07 in
Snow Depth Not available.
UV 0.0 out of 12
Pollen 9.60 out of 12
Air Quality Not available.
Flu Activity Not available.
METAR KDAY 042056Z 16011KT 8SM TSRA BKN050CB BKN080 OVC120 21/19 A3006 RMK AO2 PK WND 03029/1958 WSHFT 1954 RAB26 TSB21 SLP172 OCNL LTGICCCCG ALQDS TS ALQDS MOV SE P0017 60017 T02060194 55001
Pressure 30.04 in
Visibility 8.0 miles
Clouds Mostly Cloudy 5000 ft
Mostly Cloudy 8000 ft
Overcast 12000 ft
Dew Point 65 °F
Humidity 89%
Rainfall 0.07 in
Snow Depth Not available.
UV 0.0 out of 12
Pollen 9.60 out of 12
Air Quality Not available.
Flu Activity Not available.
METAR KDAY 042056Z 16011KT 8SM TSRA BKN050CB BKN080 OVC120 21/19 A3006 RMK AO2 PK WND 03029/1958 WSHFT 1954 RAB26 TSB21 SLP172 OCNL LTGICCCCG ALQDS TS ALQDS MOV SE P0017 60017 T02060194 55001

10-Day Weather Forecast

×

Almanac

Astronomy

Sep. 04, 2015 Rise Set
Actual Time
Civil Twilight
Nautical Twilight
Astronomical Twilight
Moon
Length of Visible Light
Length of Day
Tomorrow will be .
, % of the Moon is Illuminated

Today's Extremes

State Highs State Lows

Community

WunderPhotos

Upload Photos

1,852,290 photos uploaded!

WunderBlogs® & News

Nearby

Air Quality

  Air Quality AQ Index Pollutant
Not available.

Snow Depth

Station Depth Elevation

Earthquake Activity

City Distance Mag. Time & Date
Minimum magnitude displayed is 2.5.

Coastal Water Temperatures

Place Temperature

Stations

Nearby Weather Stations

Station Location Temp. Windchill Dew Point Humidity Wind Precip. Elev Updated Type